sensor_id;sensor_type;location;lat;lon;timestamp;pressure;altitude;pressure_sealevel;temperature;humidity
60820;BME280;46641;48.904;9.126;2023-02-28T00:03:35;99336.22;;;7.26;51.33
60820;BME280;46641;48.904;9.126;2023-02-28T00:08:26;99336.63;;;7.20;50.79
60820;BME280;46641;48.904;9.126;2023-02-28T00:13:17;99328.75;;;7.22;52.06
60820;BME280;46641;48.904;9.126;2023-02-28T00:18:07;99325.41;;;7.20;51.82
60820;BME280;46641;48.904;9.126;2023-02-28T00:22:57;99329.88;;;7.18;51.30
60820;BME280;46641;48.904;9.126;2023-02-28T00:27:48;99323.94;;;7.16;51.93
60820;BME280;46641;48.904;9.126;2023-02-28T00:32:38;99327.25;;;7.18;52.44
60820;BME280;46641;48.904;9.126;2023-02-28T00:37:29;99325.53;;;7.18;52.52
60820;BME280;46641;48.904;9.126;2023-02-28T00:42:19;99324.66;;;7.18;52.18
60820;BME280;46641;48.904;9.126;2023-02-28T00:47:09;99325.94;;;7.12;52.22
60820;BME280;46641;48.904;9.126;2023-02-28T00:52:00;99326.66;;;7.14;52.37
60820;BME280;46641;48.904;9.126;2023-02-28T00:56:50;99327.72;;;7.12;53.42
60820;BME280;46641;48.904;9.126;2023-02-28T01:01:41;99322.50;;;7.12;53.20
60820;BME280;46641;48.904;9.126;2023-02-28T01:06:32;99322.50;;;7.12;53.27
60820;BME280;46641;48.904;9.126;2023-02-28T01:11:22;99322.59;;;7.10;53.14
60820;BME280;46641;48.904;9.126;2023-02-28T01:16:13;99307.94;;;7.09;53.15
60820;BME280;46641;48.904;9.126;2023-02-28T01:21:05;99312.50;;;7.06;53.33
60820;BME280;46641;48.904;9.126;2023-02-28T01:25:56;99312.50;;;7.06;53.20
60820;BME280;46641;48.904;9.126;2023-02-28T01:30:50;99314.38;;;7.03;52.89
60820;BME280;46641;48.904;9.126;2023-02-28T01:35:40;99313.56;;;7.03;52.60
60820;BME280;46641;48.904;9.126;2023-02-28T01:40:31;99309.59;;;6.97;52.98
60820;BME280;46641;48.904;9.126;2023-02-28T01:45:26;99315.75;;;6.96;53.65
60820;BME280;46641;48.904;9.126;2023-02-28T01:50:21;99317.31;;;6.99;53.60
60820;BME280;46641;48.904;9.126;2023-02-28T01:55:12;99302.72;;;6.96;54.10
60820;BME280;46641;48.904;9.126;2023-02-28T02:00:12;99318.97;;;7.00;53.53
60820;BME280;46641;48.904;9.126;2023-02-28T02:05:09;99307.94;;;6.96;53.82
60820;BME280;46641;48.904;9.126;2023-02-28T02:10:24;99299.38;;;6.94;54.17
60820;BME280;46641;48.904;9.126;2023-02-28T02:15:28;99295.84;;;6.95;54.12
60820;BME280;46641;48.904;9.126;2023-02-28T02:25:56;99296.16;;;6.91;54.11
60820;BME280;46641;48.904;9.126;2023-02-28T02:31:18;99292.81;;;6.89;53.95
60820;BME280;46641;48.904;9.126;2023-02-28T02:36:22;99286.78;;;6.88;54.55
60820;BME280;46641;48.904;9.126;2023-02-28T02:41:28;99286.38;;;6.82;54.08
60820;BME280;46641;48.904;9.126;2023-02-28T02:46:29;99289.09;;;6.80;54.03
60820;BME280;46641;48.904;9.126;2023-02-28T02:51:24;99284.81;;;6.79;54.58
60820;BME280;46641;48.904;9.126;2023-02-28T02:56:19;99287.41;;;6.79;54.16
60820;BME280;46641;48.904;9.126;2023-02-28T03:01:19;99285.13;;;6.74;53.49
60820;BME280;46641;48.904;9.126;2023-02-28T03:06:17;99279.13;;;6.74;53.92
60820;BME280;46641;48.904;9.126;2023-02-28T03:11:12;99286.09;;;6.73;54.10
60820;BME280;46641;48.904;9.126;2023-02-28T03:16:34;99287.00;;;6.72;53.40
60820;BME280;46641;48.904;9.126;2023-02-28T03:26:54;99279.41;;;6.69;54.38
60820;BME280;46641;48.904;9.126;2023-02-28T03:31:52;99287.13;;;6.71;54.36
60820;BME280;46641;48.904;9.126;2023-02-28T03:36:48;99284.59;;;6.69;54.79
60820;BME280;46641;48.904;9.126;2023-02-28T03:41:48;99279.41;;;6.69;54.13
60820;BME280;46641;48.904;9.126;2023-02-28T03:46:53;99281.09;;;6.70;54.59
60820;BME280;46641;48.904;9.126;2023-02-28T03:51:46;99279.31;;;6.71;54.60
60820;BME280;46641;48.904;9.126;2023-02-28T03:56:43;99272.47;;;6.70;54.75
60820;BME280;46641;48.904;9.126;2023-02-28T04:01:40;99280.34;;;6.68;54.86
60820;BME280;46641;48.904;9.126;2023-02-28T04:06:33;99276.91;;;6.68;55.60
60820;BME280;46641;48.904;9.126;2023-02-28T04:11:32;99282.94;;;6.68;55.04
60820;BME280;46641;48.904;9.126;2023-02-28T04:16:24;99290.66;;;6.70;55.37
60820;BME280;46641;48.904;9.126;2023-02-28T04:21:15;99304.59;;;6.69;55.28
60820;BME280;46641;48.904;9.126;2023-02-28T04:26:05;99295.88;;;6.70;54.98
60820;BME280;46641;48.904;9.126;2023-02-28T04:30:57;99296.06;;;6.67;55.71
60820;BME280;46641;48.904;9.126;2023-02-28T04:35:48;99292.53;;;6.68;55.23
60820;BME280;46641;48.904;9.126;2023-02-28T04:40:38;99282.31;;;6.65;54.55
60820;BME280;46641;48.904;9.126;2023-02-28T04:45:29;99280.66;;;6.64;54.55
60820;BME280;46641;48.904;9.126;2023-02-28T04:50:22;99276.09;;;6.54;54.95
60820;BME280;46641;48.904;9.126;2023-02-28T04:55:12;99285.34;;;6.59;54.53
60820;BME280;46641;48.904;9.126;2023-02-28T05:00:03;99288.06;;;6.57;53.90
60820;BME280;46641;48.904;9.126;2023-02-28T05:04:56;99290.03;;;6.53;54.19
60820;BME280;46641;48.904;9.126;2023-02-28T05:09:46;99289.91;;;6.55;54.99
60820;BME280;46641;48.904;9.126;2023-02-28T05:14:37;99291.78;;;6.53;54.35
60820;BME280;46641;48.904;9.126;2023-02-28T05:19:27;99293.53;;;6.52;53.96
60820;BME280;46641;48.904;9.126;2023-02-28T05:24:18;99292.72;;;6.52;54.71
60820;BME280;46641;48.904;9.126;2023-02-28T05:29:12;99300.00;;;6.60;54.51
60820;BME280;46641;48.904;9.126;2023-02-28T05:34:02;99293.88;;;6.61;54.35
60820;BME280;46641;48.904;9.126;2023-02-28T05:38:56;99301.69;;;6.61;54.48
60820;BME280;46641;48.904;9.126;2023-02-28T05:43:46;99307.50;;;6.64;54.69
60820;BME280;46641;48.904;9.126;2023-02-28T05:48:39;99306.56;;;6.65;54.26
60820;BME280;46641;48.904;9.126;2023-02-28T05:53:30;99305.00;;;6.63;54.84
60820;BME280;46641;48.904;9.126;2023-02-28T05:58:21;99307.59;;;6.63;55.15
60820;BME280;46641;48.904;9.126;2023-02-28T06:03:12;99311.88;;;6.64;55.00
60820;BME280;46641;48.904;9.126;2023-02-28T06:08:02;99314.03;;;6.44;52.25
60820;BME280;46641;48.904;9.126;2023-02-28T06:12:53;99317.97;;;5.83;50.51
60820;BME280;46641;48.904;9.126;2023-02-28T06:17:43;99321.41;;;6.11;51.01
60820;BME280;46641;48.904;9.126;2023-02-28T06:22:37;99326.72;;;5.68;49.37
60820;BME280;46641;48.904;9.126;2023-02-28T06:27:27;99322.88;;;5.88;50.24
60820;BME280;46641;48.904;9.126;2023-02-28T06:32:17;99324.13;;;6.09;50.57
60820;BME280;46641;48.904;9.126;2023-02-28T06:37:07;99328.63;;;6.20;51.25
60820;BME280;46641;48.904;9.126;2023-02-28T06:41:58;99329.06;;;6.26;51.03
60820;BME280;46641;48.904;9.126;2023-02-28T06:46:48;99339.19;;;6.31;51.40
60820;BME280;46641;48.904;9.126;2023-02-28T06:51:40;99341.59;;;6.34;51.97
60820;BME280;46641;48.904;9.126;2023-02-28T06:56:31;99343.97;;;6.37;51.90
60820;BME280;46641;48.904;9.126;2023-02-28T07:01:21;99351.78;;;6.37;52.19
60820;BME280;46641;48.904;9.126;2023-02-28T07:06:15;99348.53;;;6.33;52.12
60820;BME280;46641;48.904;9.126;2023-02-28T07:11:07;99356.97;;;6.37;52.17
60820;BME280;46641;48.904;9.126;2023-02-28T07:16:00;99358.00;;;6.35;51.18
60820;BME280;46641;48.904;9.126;2023-02-28T07:20:51;99357.63;;;6.41;52.06
60820;BME280;46641;48.904;9.126;2023-02-28T07:25:42;99362.63;;;6.44;52.92
60820;BME280;46641;48.904;9.126;2023-02-28T07:30:32;99359.06;;;6.45;52.28
60820;BME280;46641;48.904;9.126;2023-02-28T07:35:23;99365.09;;;6.45;52.53
60820;BME280;46641;48.904;9.126;2023-02-28T07:40:13;99368.34;;;6.49;52.73
60820;BME280;46641;48.904;9.126;2023-02-28T07:45:05;99365.94;;;6.46;52.26
60820;BME280;46641;48.904;9.126;2023-02-28T07:49:55;99366.53;;;6.37;51.32
60820;BME280;46641;48.904;9.126;2023-02-28T07:54:46;99375.69;;;6.42;52.98
60820;BME280;46641;48.904;9.126;2023-02-28T07:59:36;99375.69;;;6.42;50.80
60820;BME280;46641;48.904;9.126;2023-02-28T08:04:26;99390.44;;;5.16;47.79
60820;BME280;46641;48.904;9.126;2023-02-28T08:09:17;99384.59;;;4.54;50.58
60820;BME280;46641;48.904;9.126;2023-02-28T08:14:07;99384.16;;;4.15;49.99
60820;BME280;46641;48.904;9.126;2023-02-28T08:18:57;99382.66;;;4.57;50.84
60820;BME280;46641;48.904;9.126;2023-02-28T08:23:49;99391.66;;;5.25;49.95
60820;BME280;46641;48.904;9.126;2023-02-28T08:28:40;99382.75;;;5.57;49.54
60820;BME280;46641;48.904;9.126;2023-02-28T08:33:31;99387.47;;;5.79;49.52
60820;BME280;46641;48.904;9.126;2023-02-28T08:38:22;99384.69;;;5.97;49.18
60820;BME280;46641;48.904;9.126;2023-02-28T08:43:12;99382.44;;;6.05;49.79
60820;BME280;46641;48.904;9.126;2023-02-28T08:48:03;99381.63;;;6.17;49.45
60820;BME280;46641;48.904;9.126;2023-02-28T08:52:53;99396.00;;;6.23;49.09
60820;BME280;46641;48.904;9.126;2023-02-28T08:57:43;99384.41;;;6.28;49.06
60820;BME280;46641;48.904;9.126;2023-02-28T09:02:34;99397.09;;;6.33;49.18
60820;BME280;46641;48.904;9.126;2023-02-28T09:07:24;99395.78;;;6.40;50.28
60820;BME280;46641;48.904;9.126;2023-02-28T09:12:15;99390.88;;;6.36;49.29
60820;BME280;46641;48.904;9.126;2023-02-28T09:17:05;99389.44;;;6.44;50.83
60820;BME280;46641;48.904;9.126;2023-02-28T09:21:56;99393.94;;;6.55;50.66
60820;BME280;46641;48.904;9.126;2023-02-28T09:26:46;99391.97;;;6.59;50.61
60820;BME280;46641;48.904;9.126;2023-02-28T09:31:36;99397.09;;;6.60;49.76
60820;BME280;46641;48.904;9.126;2023-02-28T09:36:27;99397.59;;;6.65;49.95
60820;BME280;46641;48.904;9.126;2023-02-28T09:41:23;99404.19;;;6.71;50.01
60820;BME280;46641;48.904;9.126;2023-02-28T09:46:32;99395.44;;;6.72;50.15
60820;BME280;46641;48.904;9.126;2023-02-28T09:51:33;99390.75;;;6.77;50.33
60820;BME280;46641;48.904;9.126;2023-02-28T09:56:30;99405.53;;;6.76;49.98
60820;BME280;46641;48.904;9.126;2023-02-28T10:01:31;99401.69;;;6.82;49.64
60820;BME280;46641;48.904;9.126;2023-02-28T10:06:30;99403.88;;;6.88;51.52
60820;BME280;46641;48.904;9.126;2023-02-28T10:11:24;99405.13;;;6.95;51.20
60820;BME280;46641;48.904;9.126;2023-02-28T10:16:20;99402.25;;;7.00;51.30
60820;BME280;46641;48.904;9.126;2023-02-28T10:21:21;99407.88;;;7.07;50.85
60820;BME280;46641;48.904;9.126;2023-02-28T10:26:14;99412.13;;;7.08;52.05
60820;BME280;46641;48.904;9.126;2023-02-28T10:31:18;99409.84;;;7.16;50.97
60820;BME280;46641;48.904;9.126;2023-02-28T10:36:13;99417.34;;;7.20;51.80
60820;BME280;46641;48.904;9.126;2023-02-28T10:46:03;99408.38;;;7.24;51.33
60820;BME280;46641;48.904;9.126;2023-02-28T10:50:54;99412.66;;;7.25;50.95
60820;BME280;46641;48.904;9.126;2023-02-28T11:00:59;99412.75;;;7.37;50.66
60820;BME280;46641;48.904;9.126;2023-02-28T11:05:49;99402.66;;;7.45;50.44
60820;BME280;46641;48.904;9.126;2023-02-28T11:10:45;99395.56;;;7.47;50.88
60820;BME280;46641;48.904;9.126;2023-02-28T11:15:36;99389.09;;;7.53;50.88
60820;BME280;46641;48.904;9.126;2023-02-28T11:20:30;99397.44;;;7.58;51.35
60820;BME280;46641;48.904;9.126;2023-02-28T11:25:25;99376.88;;;7.66;51.77
60820;BME280;46641;48.904;9.126;2023-02-28T11:30:24;99372.81;;;7.75;51.18
60820;BME280;46641;48.904;9.126;2023-02-28T11:35:24;99377.59;;;7.81;52.17
60820;BME280;46641;48.904;9.126;2023-02-28T11:40:20;99375.56;;;7.97;51.44
60820;BME280;46641;48.904;9.126;2023-02-28T11:45:28;99369.22;;;8.12;50.50
60820;BME280;46641;48.904;9.126;2023-02-28T11:50:49;99370.56;;;8.18;49.99
60820;BME280;46641;48.904;9.126;2023-02-28T11:55:45;99373.34;;;8.28;50.41
60820;BME280;46641;48.904;9.126;2023-02-28T12:16:29;99368.69;;;6.70;47.75
60820;BME280;46641;48.904;9.126;2023-02-28T12:21:38;99362.56;;;6.71;49.95
60820;BME280;46641;48.904;9.126;2023-02-28T12:31:29;99348.22;;;8.03;47.54
60820;BME280;46641;48.904;9.126;2023-02-28T12:36:22;99334.13;;;8.29;47.30
60820;BME280;46641;48.904;9.126;2023-02-28T12:41:17;99338.97;;;8.47;45.94
60820;BME280;46641;48.904;9.126;2023-02-28T12:46:23;99337.59;;;8.65;46.12
60820;BME280;46641;48.904;9.126;2023-02-28T12:51:16;99326.56;;;8.61;46.17
60820;BME280;46641;48.904;9.126;2023-02-28T13:01:42;99318.97;;;8.70;45.26
60820;BME280;46641;48.904;9.126;2023-02-28T13:16:54;99319.84;;;8.93;45.51
60820;BME280;46641;48.904;9.126;2023-02-28T13:21:46;99308.81;;;9.11;48.33
60820;BME280;46641;48.904;9.126;2023-02-28T13:31:27;99312.38;;;9.22;47.60
60820;BME280;46641;48.904;9.126;2023-02-28T13:46:26;99309.38;;;9.49;48.36
60820;BME280;46641;48.904;9.126;2023-02-28T13:51:35;99310.59;;;9.45;46.71
60820;BME280;46641;48.904;9.126;2023-02-28T13:56:43;99309.88;;;9.54;46.51
60820;BME280;46641;48.904;9.126;2023-02-28T14:02:00;99313.09;;;9.46;45.59
60820;BME280;46641;48.904;9.126;2023-02-28T14:06:54;99308.59;;;9.37;48.08
60820;BME280;46641;48.904;9.126;2023-02-28T14:11:45;99318.38;;;8.66;49.42
60820;BME280;46641;48.904;9.126;2023-02-28T14:16:47;99310.13;;;9.28;47.14
60820;BME280;46641;48.904;9.126;2023-02-28T14:32:30;99305.91;;;9.71;46.46
60820;BME280;46641;48.904;9.126;2023-02-28T14:37:29;99301.41;;;9.73;46.35
60820;BME280;46641;48.904;9.126;2023-02-28T14:42:33;99302.47;;;9.81;45.50
60820;BME280;46641;48.904;9.126;2023-02-28T14:47:27;99299.47;;;9.86;47.82
60820;BME280;46641;48.904;9.126;2023-02-28T14:52:25;99306.47;;;9.86;46.92
60820;BME280;46641;48.904;9.126;2023-02-28T14:57:25;99309.44;;;9.92;47.61
60820;BME280;46641;48.904;9.126;2023-02-28T15:02:22;99309.44;;;9.92;46.76
60820;BME280;46641;48.904;9.126;2023-02-28T15:07:15;99307.16;;;9.99;47.35
60820;BME280;46641;48.904;9.126;2023-02-28T15:12:06;99298.09;;;10.03;47.63
60820;BME280;46641;48.904;9.126;2023-02-28T15:17:03;99320.81;;;10.02;46.55
60820;BME280;46641;48.904;9.126;2023-02-28T15:22:11;99314.25;;;10.08;47.87
60820;BME280;46641;48.904;9.126;2023-02-28T15:27:06;99318.75;;;10.17;47.68
60820;BME280;46641;48.904;9.126;2023-02-28T15:32:05;99320.50;;;10.17;46.94
60820;BME280;46641;48.904;9.126;2023-02-28T15:36:56;99321.72;;;10.13;47.71
60820;BME280;46641;48.904;9.126;2023-02-28T15:41:46;99316.22;;;10.16;46.84
60820;BME280;46641;48.904;9.126;2023-02-28T15:46:37;99320.97;;;10.22;47.99
60820;BME280;46641;48.904;9.126;2023-02-28T15:51:33;99311.00;;;10.27;47.59
60820;BME280;46641;48.904;9.126;2023-02-28T15:56:29;99314.06;;;10.32;47.49
60820;BME280;46641;48.904;9.126;2023-02-28T16:01:25;99317.50;;;10.33;47.79
60820;BME280;46641;48.904;9.126;2023-02-28T16:06:38;99315.72;;;10.33;47.04
60820;BME280;46641;48.904;9.126;2023-02-28T16:11:39;99315.59;;;10.35;46.54
60820;BME280;46641;48.904;9.126;2023-02-28T16:16:32;99321.09;;;10.32;47.20
60820;BME280;46641;48.904;9.126;2023-02-28T16:21:24;99326.66;;;9.95;46.58
60820;BME280;46641;48.904;9.126;2023-02-28T16:26:21;99322.38;;;9.94;44.06
60820;BME280;46641;48.904;9.126;2023-02-28T16:31:13;99334.34;;;10.07;46.34
60820;BME280;46641;48.904;9.126;2023-02-28T16:36:11;99336.13;;;9.52;41.25
60820;BME280;46641;48.904;9.126;2023-02-28T16:41:02;99348.78;;;8.78;40.80
60820;BME280;46641;48.904;9.126;2023-02-28T16:45:55;99347.97;;;8.54;42.93
60820;BME280;46641;48.904;9.126;2023-02-28T16:50:48;99357.25;;;8.58;42.98
60820;BME280;46641;48.904;9.126;2023-02-28T16:55:38;99368.25;;;8.26;44.96
60820;BME280;46641;48.904;9.126;2023-02-28T17:00:30;99366.63;;;9.07;44.63
60820;BME280;46641;48.904;9.126;2023-02-28T17:05:22;99368.06;;;9.45;43.80
60820;BME280;46641;48.904;9.126;2023-02-28T17:15:04;99372.06;;;9.71;43.65
60820;BME280;46641;48.904;9.126;2023-02-28T17:19:56;99377.06;;;9.74;43.43
60820;BME280;46641;48.904;9.126;2023-02-28T17:24:46;99382.66;;;9.70;44.00
60820;BME280;46641;48.904;9.126;2023-02-28T17:29:36;99390.88;;;9.65;44.29
60820;BME280;46641;48.904;9.126;2023-02-28T17:34:27;99391.34;;;9.59;44.36
60820;BME280;46641;48.904;9.126;2023-02-28T17:39:18;99401.47;;;9.52;44.65
60820;BME280;46641;48.904;9.126;2023-02-28T17:44:14;99393.94;;;9.48;44.37
60820;BME280;46641;48.904;9.126;2023-02-28T17:49:06;99400.47;;;9.42;45.22
60820;BME280;46641;48.904;9.126;2023-02-28T17:53:56;99405.09;;;9.39;45.43
60820;BME280;46641;48.904;9.126;2023-02-28T17:58:47;99408.69;;;9.38;45.97
60820;BME280;46641;48.904;9.126;2023-02-28T18:03:38;99409.63;;;9.36;46.15
60820;BME280;46641;48.904;9.126;2023-02-28T18:08:29;99409.63;;;9.36;46.59
60820;BME280;46641;48.904;9.126;2023-02-28T18:13:20;99416.66;;;9.36;47.37
60820;BME280;46641;48.904;9.126;2023-02-28T18:18:11;99409.16;;;9.31;47.05
60820;BME280;46641;48.904;9.126;2023-02-28T18:23:01;99412.72;;;9.30;46.84
60820;BME280;46641;48.904;9.126;2023-02-28T18:27:52;99405.81;;;9.29;47.85
60820;BME280;46641;48.904;9.126;2023-02-28T18:32:43;99408.69;;;9.26;47.80
60820;BME280;46641;48.904;9.126;2023-02-28T18:37:33;99402.97;;;9.21;47.77
60820;BME280;46641;48.904;9.126;2023-02-28T18:42:23;99403.09;;;9.20;47.87
60820;BME280;46641;48.904;9.126;2023-02-28T18:47:14;99405.81;;;9.18;48.15
60820;BME280;46641;48.904;9.126;2023-02-28T18:52:04;99407.81;;;9.15;48.11
60820;BME280;46641;48.904;9.126;2023-02-28T18:56:54;99407.81;;;9.15;48.32
60820;BME280;46641;48.904;9.126;2023-02-28T19:01:45;99409.00;;;9.10;48.53
60820;BME280;46641;48.904;9.126;2023-02-28T19:06:35;99409.00;;;9.10;48.29
60820;BME280;46641;48.904;9.126;2023-02-28T19:11:27;99403.19;;;9.07;48.87
60820;BME280;46641;48.904;9.126;2023-02-28T19:16:20;99404.34;;;9.03;48.46
60820;BME280;46641;48.904;9.126;2023-02-28T19:21:13;99409.69;;;9.01;49.00
60820;BME280;46641;48.904;9.126;2023-02-28T19:26:07;99413.25;;;9.00;49.00
60820;BME280;46641;48.904;9.126;2023-02-28T19:30:57;99418.59;;;8.99;49.82
60820;BME280;46641;48.904;9.126;2023-02-28T19:35:48;99410.88;;;8.97;49.51
60820;BME280;46641;48.904;9.126;2023-02-28T19:40:38;99410.25;;;8.94;50.03
60820;BME280;46641;48.904;9.126;2023-02-28T19:45:28;99418.81;;;8.96;49.73
60820;BME280;46641;48.904;9.126;2023-02-28T19:50:18;99421.66;;;8.93;50.30
60820;BME280;46641;48.904;9.126;2023-02-28T19:55:09;99415.72;;;8.91;50.00
60820;BME280;46641;48.904;9.126;2023-02-28T20:00:00;99420.94;;;8.91;50.66
60820;BME280;46641;48.904;9.126;2023-02-28T20:04:50;99415.09;;;8.87;50.44
60820;BME280;46641;48.904;9.126;2023-02-28T20:09:41;99419.41;;;8.88;50.65
60820;BME280;46641;48.904;9.126;2023-02-28T20:14:31;99410.97;;;8.84;50.61
60820;BME280;46641;48.904;9.126;2023-02-28T20:19:21;99412.75;;;8.84;50.84
60820;BME280;46641;48.904;9.126;2023-02-28T20:24:11;99419.03;;;8.81;50.86
60820;BME280;46641;48.904;9.126;2023-02-28T20:29:03;99411.41;;;8.78;51.17
60820;BME280;46641;48.904;9.126;2023-02-28T20:33:53;99406.41;;;8.75;51.35
60820;BME280;46641;48.904;9.126;2023-02-28T20:38:44;99410.81;;;8.75;51.00
60820;BME280;46641;48.904;9.126;2023-02-28T20:43:34;99402.47;;;8.70;51.39
60820;BME280;46641;48.904;9.126;2023-02-28T20:48:24;99408.53;;;8.70;51.48
60820;BME280;46641;48.904;9.126;2023-02-28T20:53:15;99408.53;;;8.70;51.67
60820;BME280;46641;48.904;9.126;2023-02-28T20:58:05;99406.28;;;8.65;50.95
60820;BME280;46641;48.904;9.126;2023-02-28T21:02:56;99408.06;;;8.65;51.66
60820;BME280;46641;48.904;9.126;2023-02-28T21:07:47;99411.59;;;8.64;51.82
60820;BME280;46641;48.904;9.126;2023-02-28T21:12:37;99408.50;;;8.59;51.69
60820;BME280;46641;48.904;9.126;2023-02-28T21:17:28;99415.50;;;8.58;51.75
60820;BME280;46641;48.904;9.126;2023-02-28T21:22:18;99412.75;;;8.60;51.97
60820;BME280;46641;48.904;9.126;2023-02-28T21:27:08;99410.97;;;8.60;52.17
60820;BME280;46641;48.904;9.126;2023-02-28T21:31:59;99399.09;;;8.56;52.24
60820;BME280;46641;48.904;9.126;2023-02-28T21:36:51;99405.88;;;8.59;52.52
60820;BME280;46641;48.904;9.126;2023-02-28T21:41:42;99397.31;;;8.57;52.63
60820;BME280;46641;48.904;9.126;2023-02-28T21:46:32;99397.47;;;8.55;52.73
60820;BME280;46641;48.904;9.126;2023-02-28T21:51:26;99402.06;;;8.52;52.59
60820;BME280;46641;48.904;9.126;2023-02-28T21:56:22;99401.56;;;8.47;53.04
60820;BME280;46641;48.904;9.126;2023-02-28T22:01:18;99399.78;;;8.47;52.97
60820;BME280;46641;48.904;9.126;2023-02-28T22:06:11;99408.66;;;8.45;52.98
60820;BME280;46641;48.904;9.126;2023-02-28T22:11:03;99399.31;;;8.42;53.06
60820;BME280;46641;48.904;9.126;2023-02-28T22:15:54;99393.22;;;8.41;53.41
60820;BME280;46641;48.904;9.126;2023-02-28T22:20:52;99386.53;;;8.37;52.91
60820;BME280;46641;48.904;9.126;2023-02-28T22:25:42;99392.72;;;8.36;53.74
60820;BME280;46641;48.904;9.126;2023-02-28T22:30:33;99402.19;;;8.37;53.74
60820;BME280;46641;48.904;9.126;2023-02-28T22:35:23;99400.53;;;8.36;53.44
60820;BME280;46641;48.904;9.126;2023-02-28T22:40:14;99402.53;;;8.33;53.29
60820;BME280;46641;48.904;9.126;2023-02-28T22:45:04;99409.53;;;8.32;53.72
60820;BME280;46641;48.904;9.126;2023-02-28T22:49:55;99404.31;;;8.32;53.82
60820;BME280;46641;48.904;9.126;2023-02-28T22:54:48;99400.97;;;8.30;53.20
60820;BME280;46641;48.904;9.126;2023-02-28T22:59:38;99399.41;;;8.28;53.78
60820;BME280;46641;48.904;9.126;2023-02-28T23:04:29;99398.94;;;8.23;53.54
60820;BME280;46641;48.904;9.126;2023-02-28T23:09:19;99397.03;;;8.25;54.25
60820;BME280;46641;48.904;9.126;2023-02-28T23:14:14;99407.69;;;8.22;53.75
60820;BME280;46641;48.904;9.126;2023-02-28T23:19:09;99394.16;;;8.16;53.50
60820;BME280;46641;48.904;9.126;2023-02-28T23:24:01;99398.53;;;8.16;54.27
60820;BME280;46641;48.904;9.126;2023-02-28T23:28:51;99400.41;;;8.14;54.27
60820;BME280;46641;48.904;9.126;2023-02-28T23:33:42;99399.69;;;8.12;54.43
60820;BME280;46641;48.904;9.126;2023-02-28T23:38:32;99402.63;;;8.07;54.21
60820;BME280;46641;48.904;9.126;2023-02-28T23:43:22;99394.91;;;8.06;54.37
60820;BME280;46641;48.904;9.126;2023-02-28T23:48:13;99396.91;;;8.02;54.16
60820;BME280;46641;48.904;9.126;2023-02-28T23:53:03;99398.59;;;8.03;54.35
60820;BME280;46641;48.904;9.126;2023-02-28T23:57:54;99394.41;;;8.01;54.27
